Time;durP1;ratioP1;P1;durP2;ratioP2;P2;SDS_P1;SDS_P2;PMS_P1;PMS_P2;Temp;Humidity;BMP_temperature;BMP_pressure;BME280_temperature;BME280_humidity;BME280_pressure;Samples;Min_cycle;Max_cycle;Signal;HPM_P1;HPM_P2
2021/10/03 00:00:41;;;;;;;;;4.75;4.75;;;;;18.05;100.00;99259.44;5079845;27;45652;-67
2021/10/03 00:03:10;;;;;;;;;3.00;1.25;;;;;18.08;100.00;99256.53;5079926;27;45288;-67
2021/10/03 00:05:37;;;;;;;;;4.00;4.00;;;;;18.09;100.00;99261.69;5079829;27;45342;-67
2021/10/03 00:08:05;;;;;;;;;5.50;5.50;;;;;18.13;100.00;99268.34;5079956;28;45466;-68
2021/10/03 00:10:33;;;;;;;;;6.00;5.00;;;;;18.14;100.00;99259.50;5079661;27;45231;-67
2021/10/03 00:13:04;;;;;;;;;5.00;4.00;;;;;18.18;100.00;99260.91;5079778;27;45566;-68
2021/10/03 00:15:32;;;;;;;;;2.75;2.25;;;;;18.21;100.00;99255.38;5080082;27;45287;-67
2021/10/03 00:17:58;;;;;;;;;2.75;2.75;;;;;18.23;100.00;99236.88;5068738;27;46600;-68
2021/10/03 00:20:24;;;;;;;;;7.00;5.50;;;;;18.19;100.00;99236.28;5079771;27;45257;-68
2021/10/03 00:22:49;;;;;;;;;6.25;4.00;;;;;18.23;100.00;99240.34;5079742;27;45376;-68
2021/10/03 00:25:15;;;;;;;;;4.75;4.75;;;;;18.23;100.00;99235.09;5079981;27;45402;-68
2021/10/03 00:27:42;;;;;;;;;3.00;2.75;;;;;18.24;100.00;99231.50;5079230;28;45470;-68
2021/10/03 00:30:08;;;;;;;;;7.75;5.25;;;;;18.23;100.00;99239.50;5079615;27;45675;-67
2021/10/03 00:32:33;;;;;;;;;6.00;3.75;;;;;18.23;100.00;99229.00;5079323;27;45374;-67
2021/10/03 00:34:59;;;;;;;;;5.25;5.00;;;;;18.21;100.00;99218.56;5079597;27;45434;-67
2021/10/03 00:37:25;;;;;;;;;5.75;5.00;;;;;18.23;100.00;99221.09;5082863;27;46112;-67
2021/10/03 00:39:50;;;;;;;;;6.00;4.25;;;;;18.25;100.00;99221.81;5081652;27;45768;-68
2021/10/03 00:42:16;;;;;;;;;8.50;6.00;;;;;18.29;100.00;99217.13;5080110;27;45359;-67
2021/10/03 00:44:41;;;;;;;;;4.50;3.25;;;;;18.30;100.00;99218.78;5080103;27;45492;-68
2021/10/03 00:47:07;;;;;;;;;4.75;4.75;;;;;18.34;100.00;99212.31;5082424;27;46870;-68
2021/10/03 00:49:36;;;;;;;;;5.75;4.75;;;;;18.33;100.00;99214.09;5081630;28;45742;-69
2021/10/03 00:52:07;;;;;;;;;5.00;5.00;;;;;18.33;100.00;99213.28;5082756;28;45444;-69
2021/10/03 00:54:33;;;;;;;;;7.25;6.25;;;;;18.34;100.00;99196.53;5082816;27;45401;-69
2021/10/03 00:56:59;;;;;;;;;4.25;3.75;;;;;18.36;100.00;99207.75;5082386;27;45247;-68
2021/10/03 00:59:26;;;;;;;;;3.50;3.50;;;;;18.34;100.00;99205.25;5082410;27;45483;-68
2021/10/03 01:01:52;;;;;;;;;8.00;6.00;;;;;18.34;99.91;99207.88;5082304;27;45475;-68
2021/10/03 01:04:17;;;;;;;;;7.25;6.00;;;;;18.32;100.00;99206.34;5079085;28;45335;-68
2021/10/03 01:06:43;;;;;;;;;8.00;5.00;;;;;18.31;100.00;99199.41;5078412;28;46664;-66
2021/10/03 01:09:09;;;;;;;;;7.50;7.50;;;;;18.29;100.00;99198.72;5081158;28;45491;-68
2021/10/03 01:11:35;;;;;;;;;7.00;7.00;;;;;18.28;100.00;99197.03;5076017;28;45360;-68
2021/10/03 01:14:00;;;;;;;;;7.50;6.25;;;;;18.25;100.00;99198.16;5081666;27;45406;-67
2021/10/03 01:16:25;;;;;;;;;14.25;13.75;;;;;18.22;100.00;99195.78;5078655;28;46458;-69
2021/10/03 01:18:51;;;;;;;;;6.25;5.00;;;;;18.19;100.00;99181.06;5075011;27;45208;-68
2021/10/03 01:21:17;;;;;;;;;7.00;6.00;;;;;18.18;100.00;99175.94;5082369;27;45412;-67
2021/10/03 01:23:42;;;;;;;;;8.00;5.00;;;;;18.17;100.00;99175.09;5082858;27;45286;-68
2021/10/03 01:26:08;;;;;;;;;5.50;5.25;;;;;18.14;100.00;99171.91;5082134;27;45620;-65
2021/10/03 01:28:34;;;;;;;;;5.00;5.00;;;;;18.13;100.00;99164.97;5082524;28;45242;-65
2021/10/03 01:30:59;;;;;;;;;8.50;7.00;;;;;18.08;100.00;99160.09;5082332;27;45460;-65
2021/10/03 01:33:27;;;;;;;;;4.00;3.00;;;;;18.10;100.00;99152.91;5082673;28;45337;-67
2021/10/03 01:35:53;;;;;;;;;7.25;6.75;;;;;18.11;100.00;99159.00;5082200;27;47460;-65
2021/10/03 01:38:19;;;;;;;;;5.75;4.25;;;;;18.10;100.00;99154.72;5082483;28;45845;-67
2021/10/03 01:40:46;;;;;;;;;8.25;8.25;;;;;18.10;100.00;99152.09;5082013;27;45326;-68
2021/10/03 01:43:12;;;;;;;;;8.75;6.00;;;;;18.08;100.00;99135.63;5082198;27;45271;-66
2021/10/03 01:45:38;;;;;;;;;12.25;7.00;;;;;18.06;100.00;99135.75;5080321;28;46250;-69
2021/10/03 01:48:18;;;;;;;;;8.50;6.75;;;;;18.04;100.00;99128.97;5081226;27;45153;-67
2021/10/03 01:50:47;;;;;;;;;6.00;6.00;;;;;18.06;100.00;99124.41;5081649;27;45251;-68
2021/10/03 01:53:35;;;;;;;;;9.50;7.25;;;;;18.05;100.00;99134.09;5081527;27;45207;-67
2021/10/03 01:56:01;;;;;;;;;6.50;6.00;;;;;18.07;100.00;99137.41;5080158;28;45965;-66
2021/10/03 01:58:30;;;;;;;;;9.25;6.00;;;;;18.09;100.00;99124.13;5081507;27;45754;-66
2021/10/03 02:01:00;;;;;;;;;10.00;8.50;;;;;18.09;100.00;99113.63;5081388;28;45294;-65
2021/10/03 02:03:25;;;;;;;;;6.75;6.00;;;;;18.09;100.00;99108.38;5081320;27;45401;-65
2021/10/03 02:05:51;;;;;;;;;11.00;8.00;;;;;18.09;100.00;99109.19;5081771;27;46093;-66
2021/10/03 02:08:17;;;;;;;;;8.00;7.25;;;;;18.09;100.00;99097.84;5081852;28;45377;-67
2021/10/03 02:10:46;;;;;;;;;7.50;7.00;;;;;18.10;100.00;99092.47;5081935;27;45454;-69
2021/10/03 02:13:12;;;;;;;;;10.00;8.00;;;;;18.08;100.00;99081.25;5081477;27;45715;-68
2021/10/03 02:15:40;;;;;;;;;8.50;7.75;;;;;18.11;100.00;99074.88;5081641;27;46511;-69
2021/10/03 02:18:08;;;;;;;;;5.25;5.25;;;;;18.10;100.00;99068.78;5068896;27;45499;-68
2021/10/03 02:20:34;;;;;;;;;8.50;7.25;;;;;18.09;100.00;99067.13;5081898;27;45350;-69
2021/10/03 02:23:00;;;;;;;;;9.25;8.00;;;;;18.09;100.00;99066.31;5081531;27;45196;-69
2021/10/03 02:25:25;;;;;;;;;7.75;7.25;;;;;18.10;100.00;99067.97;5081556;27;45339;-69
2021/10/03 02:27:51;;;;;;;;;9.50;7.75;;;;;18.10;100.00;99058.28;5081288;27;45295;-66
2021/10/03 02:30:16;;;;;;;;;7.50;7.50;;;;;18.10;100.00;99041.69;5081758;27;45275;-68
2021/10/03 02:32:42;;;;;;;;;8.00;7.50;;;;;18.11;100.00;99052.06;5081463;27;45441;-67
2021/10/03 02:35:10;;;;;;;;;7.25;6.25;;;;;18.11;100.00;99040.72;5081446;27;46548;-67
2021/10/03 02:37:37;;;;;;;;;5.75;5.75;;;;;18.10;99.83;99031.16;5081311;27;45340;-67
2021/10/03 02:40:05;;;;;;;;;7.75;6.75;;;;;18.11;99.95;99048.59;5081639;28;45374;-65
2021/10/03 02:42:30;;;;;;;;;6.25;6.25;;;;;18.05;100.00;99054.38;5077356;28;45297;-67
2021/10/03 02:44:56;;;;;;;;;8.00;8.00;;;;;18.07;100.00;99039.31;5070613;28;45136;-66
2021/10/03 02:47:21;;;;;;;;;7.25;6.75;;;;;18.05;100.00;99033.34;5080455;27;45261;-66
2021/10/03 02:49:46;;;;;;;;;8.25;7.50;;;;;17.99;100.00;99012.81;5081216;27;45295;-66
2021/10/03 02:52:12;;;;;;;;;12.00;7.00;;;;;17.97;100.00;99026.09;5081164;27;45157;-66
2021/10/03 02:54:39;;;;;;;;;10.75;8.00;;;;;18.02;100.00;99017.81;5080796;28;45648;-66
2021/10/03 02:57:06;;;;;;;;;13.00;7.00;;;;;18.00;100.00;99014.50;5077841;28;45810;-66
2021/10/03 02:59:32;;;;;;;;;9.75;6.75;;;;;18.02;99.85;99007.31;5081410;27;45352;-66
2021/10/03 03:01:57;;;;;;;;;8.00;6.50;;;;;17.96;100.00;99003.41;5080766;27;45333;-66
2021/10/03 03:04:23;;;;;;;;;9.50;8.25;;;;;18.00;100.00;99014.50;5080509;27;46289;-66
2021/10/03 03:06:48;;;;;;;;;10.00;7.00;;;;;18.00;99.96;99009.22;5080918;27;45540;-67
2021/10/03 03:09:14;;;;;;;;;8.00;7.75;;;;;18.01;100.00;99003.84;5081219;27;45450;-67
2021/10/03 03:11:39;;;;;;;;;7.00;6.00;;;;;17.98;99.90;98995.41;5080521;27;45355;-67
2021/10/03 03:14:05;;;;;;;;;9.50;7.25;;;;;17.99;99.62;99002.31;5080869;28;46076;-67
2021/10/03 03:16:30;;;;;;;;;9.00;7.25;;;;;18.01;99.92;99018.78;5080627;27;45168;-67
2021/10/03 03:18:55;;;;;;;;;9.00;7.75;;;;;18.01;100.00;98997.75;5069121;27;45226;-68
2021/10/03 03:21:21;;;;;;;;;9.00;7.00;;;;;18.02;99.85;98992.41;5080581;27;45514;-68
2021/10/03 03:23:47;;;;;;;;;10.75;9.25;;;;;18.02;99.48;98989.78;5080832;27;46118;-67
2021/10/03 03:26:12;;;;;;;;;8.00;7.50;;;;;18.02;99.55;98981.88;5080107;27;45185;-68
2021/10/03 03:28:37;;;;;;;;;11.50;8.25;;;;;18.05;99.64;98972.91;5080955;27;45467;-67
2021/10/03 03:31:03;;;;;;;;;8.00;8.00;;;;;18.07;98.81;98968.34;5080321;27;45168;-66
2021/10/03 03:33:29;;;;;;;;;9.25;7.50;;;;;18.06;98.74;98985.91;5080580;27;46019;-67
2021/10/03 03:35:54;;;;;;;;;7.25;6.25;;;;;18.08;98.73;98962.94;5080483;27;45393;-67
2021/10/03 03:38:20;;;;;;;;;9.25;8.00;;;;;18.10;98.89;98976.78;5080778;27;45511;-67
2021/10/03 03:40:46;;;;;;;;;10.00;7.75;;;;;18.13;98.43;98973.06;5080053;27;45468;-67
2021/10/03 03:43:11;;;;;;;;;9.00;7.75;;;;;18.13;98.19;98962.53;5080000;27;46221;-67
2021/10/03 03:45:37;;;;;;;;;10.50;10.50;;;;;18.11;97.80;98969.72;5078797;27;45274;-68
2021/10/03 03:48:03;;;;;;;;;9.25;7.25;;;;;18.11;97.78;98959.22;5074548;27;45330;-68
2021/10/03 03:50:31;;;;;;;;;7.75;7.50;;;;;18.08;98.09;98965.56;5079507;27;45328;-68
2021/10/03 03:52:56;;;;;;;;;5.50;5.50;;;;;18.09;97.89;98974.28;5080213;27;45389;-68
2021/10/03 03:55:22;;;;;;;;;6.75;6.75;;;;;18.08;97.99;98968.19;5079486;27;45433;-68
2021/10/03 03:57:49;;;;;;;;;11.25;8.75;;;;;17.99;100.00;98986.53;5080291;27;45514;-68
2021/10/03 04:00:15;;;;;;;;;9.25;7.75;;;;;17.98;100.00;98984.88;5079898;27;45480;-68
2021/10/03 04:02:40;;;;;;;;;9.50;8.25;;;;;18.02;99.24;98974.00;5079928;27;46243;-69
2021/10/03 04:05:06;;;;;;;;;8.00;7.25;;;;;17.98;99.19;98969.09;5079899;27;45345;-69
2021/10/03 04:07:31;;;;;;;;;9.25;7.75;;;;;17.97;98.73;98980.59;5080383;27;45373;-70
2021/10/03 04:09:57;;;;;;;;;7.50;7.00;;;;;17.93;98.95;98980.84;5079499;27;45447;-67
2021/10/03 04:12:22;;;;;;;;;7.00;7.00;;;;;17.91;98.93;98980.16;5079562;27;46142;-68
2021/10/03 04:14:47;;;;;;;;;7.00;6.25;;;;;17.89;99.27;98984.72;5079941;27;45355;-68
2021/10/03 04:17:13;;;;;;;;;9.50;8.75;;;;;17.86;99.16;98984.16;5074335;27;45333;-68
2021/10/03 04:19:38;;;;;;;;;9.25;8.75;;;;;17.82;99.39;98991.47;5077894;28;45507;-68
2021/10/03 04:22:04;;;;;;;;;7.75;7.00;;;;;17.78;99.78;98984.78;5080071;27;46258;-68
2021/10/03 04:24:29;;;;;;;;;9.75;8.00;;;;;17.76;100.00;98985.88;5079683;27;45302;-68
2021/10/03 04:26:54;;;;;;;;;9.25;8.75;;;;;17.76;100.00;98985.88;5079905;27;45211;-68
2021/10/03 04:29:20;;;;;;;;;9.75;8.00;;;;;17.74;100.00;98993.91;5079889;27;45209;-68
2021/10/03 04:31:45;;;;;;;;;9.25;9.25;;;;;17.73;100.00;98992.22;5094726;27;47245;-68
2021/10/03 04:34:10;;;;;;;;;10.75;9.00;;;;;17.69;100.00;98993.47;5079650;27;45266;-68
2021/10/03 04:36:36;;;;;;;;;10.50;7.25;;;;;17.67;100.00;98992.72;5079976;27;45430;-68
2021/10/03 04:39:04;;;;;;;;;8.00;8.00;;;;;17.63;100.00;98996.59;5079751;27;45403;-67
2021/10/03 04:41:30;;;;;;;;;8.75;8.00;;;;;17.61;100.00;98986.19;5079340;27;47125;-68
2021/10/03 04:43:55;;;;;;;;;10.50;9.25;;;;;17.60;100.00;98976.63;5079280;28;45602;-68
2021/10/03 04:46:21;;;;;;;;;12.00;10.50;;;;;17.57;100.00;98982.16;5078691;28;45366;-68
2021/10/03 04:48:46;;;;;;;;;7.00;7.00;;;;;17.57;100.00;98978.69;5079472;27;45358;-68
2021/10/03 04:51:11;;;;;;;;;9.00;8.00;;;;;17.57;100.00;98981.31;5079149;27;46198;-68
2021/10/03 04:53:37;;;;;;;;;9.00;9.00;;;;;17.56;100.00;98980.50;5079257;27;45464;-68
2021/10/03 04:56:02;;;;;;;;;8.00;8.00;;;;;17.57;100.00;98987.41;5079209;27;45405;-68
2021/10/03 04:58:28;;;;;;;;;10.75;10.00;;;;;17.57;100.00;98986.56;5079190;27;45329;-68
2021/10/03 05:00:53;;;;;;;;;9.75;9.75;;;;;17.57;100.00;98990.03;5079039;27;45357;-69
2021/10/03 05:03:19;;;;;;;;;7.75;7.25;;;;;17.61;100.00;98956.44;5078886;27;45326;-69
2021/10/03 05:05:44;;;;;;;;;9.75;8.25;;;;;17.63;100.00;99014.97;5079510;27;45321;-68
2021/10/03 05:08:12;;;;;;;;;11.50;10.00;;;;;17.60;100.00;99030.97;5079191;27;45299;-68
2021/10/03 05:10:38;;;;;;;;;9.75;9.75;;;;;17.59;100.00;98993.34;5079188;27;47112;-69
2021/10/03 05:13:04;;;;;;;;;7.75;5.75;;;;;17.61;100.00;99003.75;5079027;27;45585;-69
2021/10/03 05:15:29;;;;;;;;;11.75;11.75;;;;;17.55;100.00;99031.34;5079340;27;45489;-67
2021/10/03 05:17:55;;;;;;;;;3.50;2.75;;;;;17.32;100.00;99035.91;5068062;27;45454;-67
2021/10/03 05:20:20;;;;;;;;;4.00;3.00;;;;;17.03;100.00;99045.34;5079080;27;45976;-67
2021/10/03 05:22:45;;;;;;;;;3.25;1.00;;;;;16.79;100.00;99053.38;5080171;27;45323;-66
2021/10/03 05:25:11;;;;;;;;;3.50;1.00;;;;;16.52;100.00;99069.47;5082656;27;45453;-66
2021/10/03 05:27:36;;;;;;;;;0.00;0.00;;;;;16.33;100.00;99043.03;5082183;27;45526;-69
2021/10/03 05:30:03;;;;;;;;;0.00;0.00;;;;;16.21;100.00;99046.59;5082383;27;46009;-70
2021/10/03 05:32:28;;;;;;;;;0.00;0.00;;;;;16.10;100.00;99053.50;5081797;27;45494;-76
2021/10/03 05:34:54;;;;;;;;;0.00;0.00;;;;;16.02;100.00;99048.03;5082668;27;45433;-75
2021/10/03 05:37:19;;;;;;;;;0.00;0.00;;;;;15.88;100.00;99055.28;5082551;27;45387;-71
2021/10/03 05:39:44;;;;;;;;;0.00;0.00;;;;;15.78;100.00;99065.59;5082388;27;45342;-68
2021/10/03 05:42:10;;;;;;;;;0.00;0.00;;;;;15.70;100.00;99068.81;5081014;27;45177;-67
2021/10/03 05:44:35;;;;;;;;;0.75;0.00;;;;;15.73;100.00;99078.22;5069197;28;45905;-67
2021/10/03 05:47:00;;;;;;;;;0.00;0.00;;;;;15.60;100.00;99090.53;5081765;27;45394;-67
2021/10/03 05:49:26;;;;;;;;;0.00;0.00;;;;;15.46;100.00;99091.56;5081966;27;45238;-71
2021/10/03 05:51:51;;;;;;;;;0.00;0.00;;;;;15.46;100.00;99120.34;5082215;27;45418;-74
2021/10/03 05:54:18;;;;;;;;;0.25;0.25;;;;;15.41;100.00;99125.06;5081849;27;45382;-77
2021/10/03 05:56:43;;;;;;;;;0.25;0.25;;;;;15.41;100.00;99128.53;5081832;27;45181;-68
2021/10/03 05:59:12;;;;;;;;;0.00;0.00;;;;;15.45;100.00;99122.13;5081724;27;45203;-71
2021/10/03 06:01:38;;;;;;;;;1.00;0.00;;;;;15.51;100.00;99129.53;5082034;27;45330;-67
2021/10/03 06:04:04;;;;;;;;;0.00;0.00;;;;;15.55;100.00;99153.72;5081630;28;45317;-72
2021/10/03 06:06:30;;;;;;;;;0.00;0.00;;;;;15.48;100.00;99157.72;5082159;27;45335;-68
2021/10/03 06:08:55;;;;;;;;;0.00;0.00;;;;;15.45;100.00;99137.00;5081697;27;46047;-67
2021/10/03 06:11:20;;;;;;;;;0.00;0.00;;;;;15.49;100.00;99123.59;5081664;28;45269;-72
2021/10/03 06:13:46;;;;;;;;;0.00;0.00;;;;;15.55;100.00;99139.78;5081949;27;45227;-68
2021/10/03 06:16:11;;;;;;;;;0.00;0.00;;;;;15.57;100.00;99117.78;5081659;27;45241;-66
2021/10/03 06:18:36;;;;;;;;;1.00;0.00;;;;;15.66;100.00;99129.41;5069775;27;45314;-72
2021/10/03 06:21:02;;;;;;;;;0.00;0.00;;;;;15.68;100.00;99153.69;5081407;27;45203;-64
2021/10/03 06:23:27;;;;;;;;;0.50;0.00;;;;;15.62;100.00;99170.69;5081166;27;45238;-64
2021/10/03 06:25:53;;;;;;;;;0.25;0.00;;;;;15.61;100.00;99148.03;5081448;27;45163;-63
2021/10/03 06:28:18;;;;;;;;;0.00;0.00;;;;;15.67;100.00;99141.53;5080866;27;47160;-63
2021/10/03 06:30:44;;;;;;;;;0.00;0.00;;;;;15.73;100.00;99149.75;5081514;27;45280;-64
2021/10/03 06:33:09;;;;;;;;;2.00;0.50;;;;;15.79;100.00;99151.09;5081292;27;45209;-66
2021/10/03 06:35:34;;;;;;;;;0.00;0.00;;;;;15.86;100.00;99161.97;5080770;27;45506;-68
2021/10/03 06:38:00;;;;;;;;;1.25;0.00;;;;;15.91;100.00;99150.19;5079906;27;45393;-67
2021/10/03 06:40:26;;;;;;;;;0.00;0.00;;;;;15.95;100.00;99133.28;5080389;27;45601;-67
2021/10/03 06:42:53;;;;;;;;;0.00;0.00;;;;;15.87;100.00;99117.31;5080419;27;45323;-68
2021/10/03 06:45:18;;;;;;;;;0.00;0.00;;;;;15.88;100.00;99150.41;5079850;28;45392;-71
2021/10/03 06:47:43;;;;;;;;;1.00;0.00;;;;;15.88;100.00;99145.19;5079861;27;46281;-67
2021/10/03 06:50:09;;;;;;;;;0.00;0.00;;;;;15.88;100.00;99155.66;5079149;28;45236;-68
2021/10/03 06:52:35;;;;;;;;;0.00;0.00;;;;;15.91;100.00;99128.41;5081376;27;45632;-68
2021/10/03 06:55:00;;;;;;;;;0.00;0.00;;;;;15.91;100.00;99087.31;5081014;27;45421;-68
2021/10/03 06:57:25;;;;;;;;;2.75;2.75;;;;;15.85;100.00;99108.75;5080627;27;45292;-67
2021/10/03 06:59:51;;;;;;;;;12.75;8.75;;;;;15.81;100.00;99113.34;5081058;27;45216;-67
2021/10/03 07:02:21;;;;;;;;;4.00;4.00;;;;;15.85;100.00;99144.59;5080702;27;45350;-66
2021/10/03 07:04:46;;;;;;;;;1.00;1.00;;;;;15.88;100.00;99152.22;5080762;27;45479;-66
2021/10/03 07:07:12;;;;;;;;;1.00;1.00;;;;;15.94;100.00;99154.34;5080689;27;46116;-65
2021/10/03 07:09:37;;;;;;;;;1.00;1.00;;;;;16.00;100.00;99162.59;5081080;28;45426;-70
2021/10/03 07:12:03;;;;;;;;;7.75;5.25;;;;;16.04;100.00;99166.66;5080502;27;45498;-69
2021/10/03 07:14:28;;;;;;;;;1.00;1.00;;;;;16.08;100.00;99177.75;5080983;27;45444;-67
2021/10/03 07:16:54;;;;;;;;;0.00;0.00;;;;;16.10;100.00;99188.94;5077298;27;46289;-68
2021/10/03 07:19:19;;;;;;;;;0.00;0.00;;;;;16.12;100.00;99190.50;5072598;28;45279;-74
2021/10/03 07:21:44;;;;;;;;;0.00;0.00;;;;;16.16;100.00;99192.88;5080747;27;45322;-73
2021/10/03 07:24:10;;;;;;;;;2.50;1.75;;;;;16.18;100.00;99198.84;5080274;27;45231;-72
2021/10/03 07:26:35;;;;;;;;;4.00;1.50;;;;;16.19;100.00;99182.16;5079270;27;46512;-72
2021/10/03 07:29:02;;;;;;;;;1.75;1.75;;;;;16.25;100.00;99194.84;5080027;27;45262;-72
2021/10/03 07:31:28;;;;;;;;;2.00;2.00;;;;;16.29;100.00;99189.25;5080123;27;45304;-72
2021/10/03 07:33:53;;;;;;;;;1.00;1.00;;;;;16.33;100.00;99190.66;5080624;28;45306;-71
2021/10/03 07:36:19;;;;;;;;;0.00;0.00;;;;;16.37;100.00;99193.88;5080131;27;45259;-71
2021/10/03 07:38:46;;;;;;;;;1.00;1.00;;;;;16.38;100.00;99185.06;5080365;27;45226;-73
2021/10/03 07:41:11;;;;;;;;;0.00;0.00;;;;;16.39;100.00;99187.56;5079655;28;45314;-71
2021/10/03 07:43:36;;;;;;;;;1.00;1.00;;;;;16.43;100.00;99196.06;5080314;27;45501;-71
2021/10/03 07:46:02;;;;;;;;;0.00;0.00;;;;;16.46;100.00;99200.25;5078033;27;45390;-70
2021/10/03 07:48:27;;;;;;;;;2.00;1.00;;;;;16.49;100.00;99200.84;5080494;27;45360;-69
2021/10/03 07:50:52;;;;;;;;;1.00;1.00;;;;;16.52;100.00;99208.47;5080313;27;45330;-70
2021/10/03 07:53:18;;;;;;;;;1.00;1.00;;;;;16.55;100.00;99213.47;5080273;27;45288;-69
2021/10/03 07:55:44;;;;;;;;;1.00;1.00;;;;;16.57;100.00;99210.72;5078882;27;45441;-71
2021/10/03 07:58:09;;;;;;;;;3.00;2.00;;;;;16.59;100.00;99212.28;5079308;27;45424;-71
2021/10/03 08:00:36;;;;;;;;;3.25;3.25;;;;;16.60;100.00;99227.06;5079166;27;45318;-70
2021/10/03 08:03:02;;;;;;;;;4.75;3.00;;;;;16.61;100.00;99228.72;5074313;28;45596;-71
2021/10/03 08:05:30;;;;;;;;;1.00;1.00;;;;;16.64;100.00;99236.38;5078157;27;46380;-71
2021/10/03 08:07:56;;;;;;;;;2.25;2.25;;;;;16.65;100.00;99235.44;5088469;27;45544;-72
2021/10/03 08:10:21;;;;;;;;;2.00;2.00;;;;;16.67;100.00;99236.19;5089233;27;45275;-71
2021/10/03 08:12:47;;;;;;;;;2.00;2.00;;;;;16.69;100.00;99242.16;5087636;27;45367;-69
2021/10/03 08:15:13;;;;;;;;;3.00;2.50;;;;;16.72;100.00;99252.41;5083428;27;47242;-70
2021/10/03 08:17:38;;;;;;;;;2.25;1.75;;;;;16.70;100.00;99240.34;5080515;27;45333;-68
2021/10/03 08:20:04;;;;;;;;;1.00;1.00;;;;;16.64;100.00;99249.50;5075775;27;45390;-69
2021/10/03 08:22:30;;;;;;;;;2.00;2.00;;;;;16.67;100.00;99251.09;5077000;28;45419;-70
2021/10/03 08:24:55;;;;;;;;;1.00;1.00;;;;;16.69;100.00;99257.88;5077939;27;45305;-68
2021/10/03 08:27:21;;;;;;;;;1.00;1.00;;;;;16.72;100.00;99264.69;5077935;27;45342;-71
2021/10/03 08:29:46;;;;;;;;;2.00;1.75;;;;;16.72;100.00;99268.13;5075720;27;45359;-70
2021/10/03 08:32:12;;;;;;;;;1.00;1.00;;;;;16.76;100.00;99271.34;5078147;27;45274;-73
2021/10/03 08:34:37;;;;;;;;;3.00;1.75;;;;;16.77;100.00;99269.56;5077864;27;46332;-70
2021/10/03 08:37:03;;;;;;;;;3.50;3.00;;;;;16.77;100.00;99257.28;5078207;27;45296;-69
2021/10/03 08:39:28;;;;;;;;;2.00;1.00;;;;;16.84;100.00;99262.91;5075487;27;46433;-70
2021/10/03 08:41:53;;;;;;;;;7.00;7.00;;;;;16.90;100.00;99257.19;5077483;27;45579;-70
2021/10/03 08:44:19;;;;;;;;;1.25;1.00;;;;;16.93;100.00;99268.28;5075980;27;46306;-70
2021/10/03 08:46:47;;;;;;;;;1.00;1.00;;;;;16.98;100.00;99270.53;5075523;27;45406;-61
2021/10/03 08:49:12;;;;;;;;;1.00;1.00;;;;;17.30;100.00;99278.56;5074857;27;45402;-48
2021/10/03 08:51:37;;;;;;;;;3.00;1.25;;;;;17.70;100.00;99296.44;5076351;28;45306;-49
2021/10/03 08:54:03;;;;;;;;;3.25;3.00;;;;;17.93;100.00;99305.94;5077308;27;45382;-51
2021/10/03 08:56:29;;;;;;;;;3.75;2.00;;;;;18.02;100.00;99317.50;5078396;28;46420;-52
2021/10/03 08:58:54;;;;;;;;;5.00;3.00;;;;;18.10;100.00;99321.19;5081438;27;45687;-51
2021/10/03 09:01:23;;;;;;;;;7.00;5.50;;;;;18.20;100.00;99324.72;5079009;27;45404;-52
2021/10/03 09:03:50;;;;;;;;;3.00;3.00;;;;;18.24;100.00;99323.53;5077950;27;46461;-50
2021/10/03 09:06:15;;;;;;;;;7.00;5.00;;;;;18.31;100.00;99323.03;5081350;27;45697;-51
2021/10/03 09:08:43;;;;;;;;;1.00;1.00;;;;;18.42;100.00;99325.59;5081242;27;45379;-73
2021/10/03 09:11:10;;;;;;;;;2.50;2.50;;;;;18.29;100.00;99333.66;5080770;27;45469;-74
2021/10/03 09:13:35;;;;;;;;;3.50;1.50;;;;;18.13;100.00;99335.88;5078415;27;46455;-74
2021/10/03 09:16:15;;;;;;;;;2.50;2.00;;;;;17.99;100.00;99336.13;5080991;28;45295;-73
2021/10/03 09:18:45;;;;;;;;;3.25;2.00;;;;;17.87;100.00;99343.22;5080468;28;45457;-72
2021/10/03 09:21:14;;;;;;;;;2.00;1.00;;;;;17.75;100.00;99347.66;5077821;28;45276;-74
2021/10/03 09:23:40;;;;;;;;;3.50;3.50;;;;;17.70;100.00;99347.19;5076766;28;46212;-75
2021/10/03 09:26:11;;;;;;;;;1.75;1.75;;;;;17.64;100.00;99348.50;5080502;27;45341;-72
2021/10/03 09:28:36;;;;;;;;;5.50;3.00;;;;;17.63;100.00;99346.00;5081233;27;45396;-73
2021/10/03 09:31:08;;;;;;;;;4.00;2.50;;;;;17.66;100.00;99347.53;5080655;27;45590;-73
2021/10/03 09:33:50;;;;;;;;;4.00;4.00;;;;;17.69;100.00;99350.78;5075622;28;46122;-72
2021/10/03 09:36:29;;;;;;;;;2.00;2.00;;;;;17.64;100.00;99368.69;5078991;28;45819;-67
2021/10/03 09:38:59;;;;;;;;;4.00;3.00;;;;;17.53;100.00;99410.69;5078675;28;45596;-72
2021/10/03 09:41:30;;;;;;;;;0.75;0.75;;;;;17.31;100.00;99446.47;5078380;27;45292;-71
2021/10/03 09:43:58;;;;;;;;;0.00;0.00;;;;;16.70;100.00;99465.97;5078095;28;46248;-70
2021/10/03 09:46:33;;;;;;;;;0.00;0.00;;;;;15.96;100.00;99465.09;5080540;28;45287;-70
2021/10/03 09:49:00;;;;;;;;;0.00;0.00;;;;;15.44;100.00;99500.09;5075856;28;45365;-73
2021/10/03 09:51:25;;;;;;;;;0.00;0.00;;;;;14.99;100.00;99526.66;5080656;27;45495;-71
2021/10/03 09:53:52;;;;;;;;;0.00;0.00;;;;;14.65;100.00;99555.00;5080723;27;46147;-67
2021/10/03 09:56:18;;;;;;;;;0.00;0.00;;;;;14.38;100.00;99573.19;5080900;27;45666;-66
2021/10/03 09:58:46;;;;;;;;;0.00;0.00;;;;;14.26;100.00;99572.19;5078464;27;45740;-67
2021/10/03 10:01:12;;;;;;;;;0.00;0.00;;;;;14.08;100.00;99596.81;5081178;27;45421;-68
2021/10/03 10:03:37;;;;;;;;;0.00;0.00;;;;;14.07;100.00;99589.91;5080617;27;46424;-69
2021/10/03 10:06:05;;;;;;;;;0.00;0.00;;;;;14.09;100.00;99605.47;5081853;27;45279;-68
2021/10/03 10:08:36;;;;;;;;;0.50;0.00;;;;;14.07;100.00;99621.25;5080984;27;45340;-68
2021/10/03 10:11:16;;;;;;;;;0.00;0.00;;;;;14.13;100.00;99635.72;5080801;27;45436;-68
2021/10/03 10:13:52;;;;;;;;;0.75;0.00;;;;;14.16;100.00;99656.44;5079740;28;45321;-67
2021/10/03 10:16:35;;;;;;;;;0.00;0.00;;;;;14.17;100.00;99676.41;5081035;27;45369;-71
2021/10/03 10:19:28;;;;;;;;;0.25;0.00;;;;;13.99;100.00;99717.50;5091345;27;45551;-74
2021/10/03 10:22:20;;;;;;;;;0.00;0.00;;;;;14.06;100.00;99708.41;5081369;28;45494;-73
2021/10/03 10:24:47;;;;;;;;;0.00;0.00;;;;;14.18;100.00;99720.72;5086939;27;46882;-74
2021/10/03 10:27:19;;;;;;;;;0.00;0.00;;;;;14.22;100.00;99721.41;5079933;28;45550;-74
2021/10/03 10:29:48;;;;;;;;;0.00;0.00;;;;;14.16;100.00;99727.81;5084780;27;45424;-75
2021/10/03 10:32:14;;;;;;;;;0.50;0.00;;;;;14.15;100.00;99739.19;5089566;27;45235;-74
2021/10/03 10:35:07;;;;;;;;;0.00;0.00;;;;;14.21;100.00;99770.19;5084090;27;45531;-74
2021/10/03 10:37:52;;;;;;;;;0.00;0.00;;;;;14.21;100.00;99764.13;5073559;28;45540;-68
2021/10/03 10:40:21;;;;;;;;;0.00;0.00;;;;;14.21;100.00;99756.28;5080408;27;45495;-72
2021/10/03 10:42:47;;;;;;;;;0.00;0.00;;;;;14.21;100.00;99756.28;5075276;27;46380;-62
2021/10/03 10:45:28;;;;;;;;;0.00;0.00;;;;;14.24;100.00;99777.03;5071228;28;45375;-74
2021/10/03 10:48:08;;;;;;;;;0.25;0.25;;;;;14.24;100.00;99785.72;5080484;27;45529;-68
2021/10/03 10:50:54;;;;;;;;;1.00;0.00;;;;;14.23;99.76;99807.56;5075640;28;45417;-73
2021/10/03 10:53:22;;;;;;;;;0.00;0.00;;;;;14.24;99.74;99811.84;5083798;27;45527;-71
2021/10/03 10:56:09;;;;;;;;;0.00;0.00;;;;;14.28;99.97;99849.94;5080150;28;45480;-72
2021/10/03 10:58:59;;;;;;;;;0.50;0.50;;;;;14.26;100.00;99864.03;5080230;27;45255;-73
2021/10/03 11:01:30;;;;;;;;;0.00;0.00;;;;;14.37;100.00;99863.41;5085653;27;45468;-70
2021/10/03 11:04:07;;;;;;;;;0.00;0.00;;;;;14.48;100.00;99867.13;5084111;27;45335;-74
2021/10/03 11:06:32;;;;;;;;;0.00;0.00;;;;;14.61;99.54;99860.25;5085562;27;46324;-71
2021/10/03 11:08:58;;;;;;;;;0.00;0.00;;;;;14.70;99.28;99848.44;5080828;28;45357;-69
2021/10/03 11:11:27;;;;;;;;;0.00;0.00;;;;;14.86;98.22;99853.59;5085885;27;45432;-69
2021/10/03 11:14:18;;;;;;;;;0.00;0.00;;;;;15.05;95.26;99853.34;5090252;27;45331;-68
2021/10/03 11:16:50;;;;;;;;;0.75;0.00;;;;;15.18;96.28;99852.50;5085647;27;46315;-65
2021/10/03 11:19:16;;;;;;;;;1.00;1.00;;;;;15.25;94.15;99873.09;5071313;28;45230;-67
2021/10/03 11:21:47;;;;;;;;;0.50;0.50;;;;;15.37;94.43;99883.63;5081803;27;45497;-68
2021/10/03 11:24:20;;;;;;;;;3.00;2.00;;;;;15.58;92.50;99889.34;5086524;27;45448;-67
2021/10/03 11:26:55;;;;;;;;;0.25;0.25;;;;;15.72;92.77;99915.56;5088791;27;46342;-67